createdAt,value
2017-12-12T00:00:43.391Z,4.60
2017-12-12T00:03:10.793Z,4.76
2017-12-12T00:05:38.178Z,4.68
2017-12-12T00:08:05.575Z,5.01
2017-12-12T00:10:32.962Z,5.02
2017-12-12T00:13:00.374Z,5.33
2017-12-12T00:15:27.867Z,5.45
2017-12-12T00:17:55.252Z,5.34
2017-12-12T00:20:22.651Z,5.32
2017-12-12T00:22:50.043Z,5.42
2017-12-12T00:25:17.466Z,5.57
2017-12-12T00:27:44.855Z,5.57
2017-12-12T00:30:12.262Z,5.31
2017-12-12T00:32:39.738Z,5.26
2017-12-12T00:35:07.140Z,4.88
2017-12-12T00:37:34.548Z,4.97
2017-12-12T00:40:01.934Z,5.05
2017-12-12T00:42:29.324Z,4.61
2017-12-12T00:44:56.722Z,4.58
2017-12-12T00:47:24.115Z,4.69
2017-12-12T00:49:51.511Z,4.52
2017-12-12T00:52:18.890Z,4.46
2017-12-12T00:54:46.290Z,4.55
2017-12-12T00:57:13.786Z,4.47
2017-12-12T00:59:41.185Z,4.39
2017-12-12T01:02:08.568Z,4.37
2017-12-12T01:04:35.967Z,4.31
2017-12-12T01:07:03.371Z,4.45
2017-12-12T01:09:30.798Z,4.23
2017-12-12T01:11:58.147Z,4.36
2017-12-12T01:14:25.567Z,4.52
2017-12-12T01:16:52.963Z,4.62
2017-12-12T01:19:20.360Z,4.81
2017-12-12T01:21:47.759Z,4.97
2017-12-12T01:24:15.153Z,5.09
2017-12-12T01:26:42.553Z,5.25
2017-12-12T01:29:09.935Z,5.35
2017-12-12T01:31:37.468Z,5.42
2017-12-12T01:34:04.850Z,5.47
2017-12-12T01:36:32.262Z,5.35
2017-12-12T01:38:59.638Z,5.40
2017-12-12T01:41:27.039Z,5.43
2017-12-12T01:43:54.431Z,5.34
2017-12-12T01:46:21.836Z,5.25
2017-12-12T01:48:49.231Z,5.29
2017-12-12T01:51:16.703Z,5.26
2017-12-12T01:53:44.090Z,5.21
2017-12-12T01:56:11.483Z,5.04
2017-12-12T01:58:38.963Z,5.01
2017-12-12T02:01:06.353Z,4.72
2017-12-12T02:03:33.747Z,4.84
2017-12-12T02:06:01.135Z,4.74
2017-12-12T02:08:28.530Z,4.77
2017-12-12T02:10:55.919Z,4.79
2017-12-12T02:13:23.314Z,4.56
2017-12-12T02:15:50.734Z,4.41
2017-12-12T02:18:18.135Z,4.28
2017-12-12T02:20:45.536Z,3.94
2017-12-12T02:23:12.938Z,3.80
2017-12-12T02:25:40.331Z,3.46
2017-12-12T02:28:07.745Z,3.51
2017-12-12T02:30:35.137Z,3.17
2017-12-12T02:33:02.540Z,3.19
2017-12-12T02:35:29.992Z,3.29
2017-12-12T02:37:57.390Z,2.98
2017-12-12T02:40:24.782Z,2.92
2017-12-12T02:42:52.199Z,2.78
2017-12-12T02:45:19.589Z,2.56
2017-12-12T02:47:46.997Z,2.63
2017-12-12T02:50:14.425Z,2.59
2017-12-12T02:52:41.819Z,2.52
2017-12-12T02:55:09.255Z,2.33
2017-12-12T02:57:36.610Z,2.40
2017-12-12T03:00:04.010Z,2.55
2017-12-12T03:02:31.394Z,2.37
2017-12-12T03:04:58.790Z,2.26
2017-12-12T03:07:26.265Z,2.10
2017-12-12T03:09:53.647Z,1.92
2017-12-12T03:12:21.034Z,1.91
2017-12-12T03:14:48.428Z,1.96
2017-12-12T03:17:15.819Z,1.89
2017-12-12T03:19:43.211Z,1.79
2017-12-12T03:22:10.603Z,1.96
2017-12-12T03:24:38.004Z,2.04
2017-12-12T03:27:05.391Z,1.78
2017-12-12T03:29:32.791Z,1.93
2017-12-12T03:32:00.183Z,2.00
2017-12-12T03:34:27.583Z,1.93
2017-12-12T03:36:54.977Z,1.79
2017-12-12T03:39:22.365Z,1.79
2017-12-12T03:41:49.771Z,1.82
2017-12-12T03:44:17.176Z,1.71
2017-12-12T03:46:44.562Z,1.88
2017-12-12T03:49:11.955Z,1.85
2017-12-12T03:51:39.358Z,1.80
2017-12-12T03:54:06.838Z,1.81
2017-12-12T03:56:34.235Z,1.78
2017-12-12T03:59:01.633Z,1.81
2017-12-12T04:01:29.022Z,1.76
2017-12-12T04:03:56.415Z,1.79
2017-12-12T04:06:23.923Z,1.83
2017-12-12T04:08:51.319Z,1.87
2017-12-12T04:11:18.706Z,1.95
2017-12-12T04:13:46.107Z,1.95
2017-12-12T04:16:13.497Z,1.98
2017-12-12T04:18:40.899Z,1.99
2017-12-12T04:21:08.283Z,1.93
2017-12-12T04:23:35.683Z,1.86
2017-12-12T04:26:03.162Z,1.89
2017-12-12T04:28:30.545Z,1.79
2017-12-12T04:30:57.947Z,1.75
2017-12-12T04:33:25.338Z,1.84
2017-12-12T04:35:52.727Z,1.58
2017-12-12T04:38:20.114Z,1.41
2017-12-12T04:40:47.502Z,1.59
2017-12-12T04:43:14.911Z,1.59
2017-12-12T04:45:42.308Z,1.53
2017-12-12T04:48:09.707Z,1.55
2017-12-12T04:50:37.115Z,1.51
2017-12-12T04:53:04.510Z,1.52
2017-12-12T04:55:31.931Z,1.59
2017-12-12T04:57:59.316Z,1.59
2017-12-12T05:00:26.711Z,1.54
2017-12-12T05:02:54.102Z,1.58
2017-12-12T05:05:21.486Z,1.55
2017-12-12T05:07:48.887Z,1.67
2017-12-12T05:10:16.270Z,1.55
2017-12-12T05:12:43.679Z,1.46
2017-12-12T05:15:11.080Z,1.52
2017-12-12T05:17:38.469Z,1.75
2017-12-12T05:20:05.867Z,1.59
2017-12-12T05:22:33.255Z,1.73
2017-12-12T05:25:00.651Z,1.63
2017-12-12T05:27:28.445Z,1.58
2017-12-12T05:29:55.897Z,1.77
2017-12-12T05:32:23.224Z,1.79
2017-12-12T05:34:50.622Z,1.79
2017-12-12T05:37:18.070Z,1.76
2017-12-12T05:39:45.471Z,1.53
2017-12-12T05:42:12.899Z,1.66
2017-12-12T05:44:40.387Z,1.63
2017-12-12T05:47:07.864Z,1.73
2017-12-12T05:49:35.310Z,1.74
2017-12-12T05:52:02.706Z,1.75
2017-12-12T05:54:30.119Z,1.60
2017-12-12T05:56:57.524Z,1.72
2017-12-12T05:59:24.933Z,1.73
2017-12-12T06:01:52.327Z,1.65
2017-12-12T06:04:19.723Z,1.64
2017-12-12T06:06:47.118Z,1.51
2017-12-12T06:09:14.534Z,1.47
2017-12-12T06:11:41.970Z,1.53
2017-12-12T06:14:09.331Z,1.63
2017-12-12T06:16:36.728Z,1.58
2017-12-12T06:19:04.130Z,1.41
2017-12-12T06:21:31.532Z,1.31
2017-12-12T06:23:58.920Z,1.39
2017-12-12T06:26:26.319Z,1.42
2017-12-12T06:28:53.723Z,1.30
2017-12-12T06:31:21.120Z,1.40
2017-12-12T06:33:48.516Z,1.53
2017-12-12T06:36:15.911Z,1.44
2017-12-12T06:38:43.305Z,1.50
2017-12-12T06:41:10.694Z,1.49
2017-12-12T06:43:38.087Z,1.65
2017-12-12T06:46:05.490Z,1.64
2017-12-12T06:48:32.874Z,1.44
2017-12-12T06:51:00.280Z,1.27
2017-12-12T06:53:27.666Z,1.18
2017-12-12T06:55:55.063Z,1.25
2017-12-12T06:58:22.469Z,1.24
2017-12-12T07:00:49.873Z,1.23
2017-12-12T07:03:17.268Z,1.37
2017-12-12T07:05:44.670Z,1.46
2017-12-12T07:08:12.088Z,1.51
2017-12-12T07:10:39.475Z,1.43
2017-12-12T07:13:06.872Z,1.54
2017-12-12T07:15:34.249Z,1.62
2017-12-12T07:18:01.659Z,1.60
2017-12-12T07:20:29.055Z,1.43
2017-12-12T07:22:56.447Z,1.54
2017-12-12T07:25:23.838Z,1.42
2017-12-12T07:27:51.259Z,1.45
2017-12-12T07:30:18.656Z,1.46
2017-12-12T07:32:46.054Z,1.37
2017-12-12T07:35:13.438Z,1.36
2017-12-12T07:37:40.837Z,1.33
2017-12-12T07:40:08.225Z,1.44
2017-12-12T07:42:35.627Z,1.40
2017-12-12T07:45:03.024Z,1.48
2017-12-12T07:47:30.511Z,1.50
2017-12-12T07:49:57.831Z,1.47
2017-12-12T07:52:25.236Z,1.55
2017-12-12T07:54:52.647Z,1.64
2017-12-12T07:57:20.039Z,1.68
2017-12-12T07:59:47.438Z,1.57
2017-12-12T08:02:14.825Z,1.67
2017-12-12T08:04:42.486Z,1.74
2017-12-12T08:07:09.871Z,1.67
2017-12-12T08:09:37.271Z,1.79
2017-12-12T08:12:04.663Z,1.81
2017-12-12T08:14:32.067Z,1.88
2017-12-12T08:16:59.460Z,1.82
2017-12-12T08:19:26.882Z,1.84
2017-12-12T08:21:54.271Z,1.82
2017-12-12T08:24:21.674Z,1.92
2017-12-12T08:26:49.069Z,1.90
2017-12-12T08:29:16.466Z,2.06
2017-12-12T08:31:43.863Z,2.09
2017-12-12T08:34:11.259Z,2.01
2017-12-12T08:36:38.647Z,2.04
2017-12-12T08:39:06.056Z,2.20
2017-12-12T08:41:33.447Z,2.14
2017-12-12T08:44:00.852Z,2.03
2017-12-12T08:46:28.238Z,2.26
2017-12-12T08:48:55.633Z,2.13
2017-12-12T08:51:23.138Z,2.24
2017-12-12T08:53:50.507Z,2.14
2017-12-12T08:56:17.911Z,2.22
2017-12-12T08:58:45.303Z,2.34
2017-12-12T09:01:12.703Z,2.06
2017-12-12T09:03:40.086Z,2.24
2017-12-12T09:06:07.487Z,2.25
2017-12-12T09:08:34.878Z,2.34
2017-12-12T09:11:02.271Z,2.22
2017-12-12T09:13:29.668Z,2.10
2017-12-12T09:15:57.063Z,2.16
2017-12-12T09:18:25.219Z,2.16
2017-12-12T09:20:52.625Z,2.19
2017-12-12T09:23:20.009Z,2.08
2017-12-12T09:25:47.429Z,2.11
2017-12-12T09:28:14.812Z,2.01
2017-12-12T09:30:42.211Z,2.08
2017-12-12T09:33:09.601Z,2.00
2017-12-12T09:35:37.002Z,2.11
2017-12-12T09:38:04.395Z,2.20
2017-12-12T09:40:31.794Z,2.15
2017-12-12T09:42:59.186Z,2.28
2017-12-12T09:45:26.595Z,2.14
2017-12-12T09:47:53.995Z,2.30
2017-12-12T09:50:21.394Z,2.20
2017-12-12T09:52:48.786Z,2.12
2017-12-12T09:55:16.971Z,2.13
2017-12-12T09:57:44.371Z,2.20
2017-12-12T10:00:11.758Z,2.10
2017-12-12T10:02:39.162Z,2.09
2017-12-12T10:05:06.552Z,2.08
2017-12-12T10:07:33.971Z,2.11
2017-12-12T10:10:01.366Z,2.08
2017-12-12T10:12:28.763Z,2.14
2017-12-12T10:14:56.155Z,2.09
2017-12-12T10:17:23.551Z,2.18
2017-12-12T10:19:50.939Z,2.36
2017-12-12T10:22:18.331Z,2.35
2017-12-12T10:24:45.739Z,2.18
2017-12-12T10:27:13.136Z,2.18
2017-12-12T10:29:40.527Z,2.23
2017-12-12T10:32:07.936Z,2.09
2017-12-12T10:34:35.320Z,2.12
2017-12-12T10:37:02.747Z,1.94
2017-12-12T10:39:30.163Z,2.20
2017-12-12T10:41:57.546Z,2.20
2017-12-12T10:44:24.964Z,2.22
2017-12-12T10:46:52.355Z,2.28
2017-12-12T10:49:19.783Z,2.26
2017-12-12T10:51:47.180Z,2.34
2017-12-12T10:54:14.574Z,2.30
2017-12-12T10:56:41.964Z,2.33
2017-12-12T10:59:09.359Z,2.37
2017-12-12T11:01:36.745Z,2.31
2017-12-12T11:04:04.211Z,2.26
2017-12-12T11:06:31.590Z,2.19
2017-12-12T11:08:58.983Z,2.24
2017-12-12T11:11:26.365Z,2.13
2017-12-12T11:13:53.755Z,2.39
2017-12-12T11:16:21.196Z,2.22
2017-12-12T11:18:48.578Z,2.07
2017-12-12T11:21:16.000Z,2.12
2017-12-12T11:23:43.382Z,2.20
2017-12-12T11:26:10.774Z,2.36
2017-12-12T11:28:38.178Z,2.34
2017-12-12T11:31:05.563Z,2.13
2017-12-12T11:33:32.953Z,2.02
2017-12-12T11:36:00.343Z,2.12
2017-12-12T11:38:27.808Z,2.08
2017-12-12T11:40:55.127Z,2.21
2017-12-12T11:43:22.511Z,2.06
2017-12-12T11:45:49.899Z,2.15
2017-12-12T11:48:17.285Z,2.09
2017-12-12T11:50:44.671Z,1.96
2017-12-12T11:53:12.060Z,1.84
2017-12-12T11:55:39.448Z,1.91
2017-12-12T11:58:06.830Z,2.02
2017-12-12T12:00:34.214Z,1.90
2017-12-12T12:03:01.604Z,1.90
2017-12-12T12:05:28.989Z,1.91
2017-12-12T12:07:56.370Z,2.00
2017-12-12T12:10:23.792Z,1.93
2017-12-12T12:12:51.175Z,2.11
2017-12-12T12:15:18.571Z,1.79
2017-12-12T12:17:45.975Z,1.84
2017-12-12T12:20:13.362Z,1.84
2017-12-12T12:22:40.760Z,1.98
2017-12-12T12:25:08.147Z,1.86
2017-12-12T12:27:35.590Z,2.03
2017-12-12T12:30:04.584Z,2.14
2017-12-12T12:32:31.958Z,1.99
2017-12-12T12:34:59.584Z,1.88
2017-12-12T12:37:27.912Z,1.82
2017-12-12T12:39:55.290Z,1.93
2017-12-12T12:42:22.674Z,1.84
2017-12-12T12:44:50.053Z,1.71
2017-12-12T12:47:17.461Z,1.80
2017-12-12T12:49:44.834Z,1.84
2017-12-12T12:52:12.235Z,1.77
2017-12-12T12:54:39.607Z,1.75
2017-12-12T12:57:07.015Z,1.82
2017-12-12T12:59:34.384Z,1.83
2017-12-12T13:02:01.825Z,1.86
2017-12-12T13:04:29.251Z,1.83
2017-12-12T13:06:56.634Z,1.88
2017-12-12T13:09:24.027Z,1.94
2017-12-12T13:11:51.418Z,1.94
2017-12-12T13:14:18.839Z,1.97
2017-12-12T13:16:46.207Z,1.98
2017-12-12T13:19:13.599Z,2.03
2017-12-12T13:21:40.994Z,2.02
2017-12-12T13:24:08.375Z,2.20
2017-12-12T13:26:35.779Z,1.97
2017-12-12T13:29:03.167Z,2.12
2017-12-12T13:31:30.558Z,2.18
2017-12-12T13:33:57.953Z,2.27
2017-12-12T13:36:25.341Z,2.12
2017-12-12T13:38:52.837Z,2.19
2017-12-12T13:41:20.222Z,2.35
2017-12-12T13:43:47.611Z,2.32
2017-12-12T13:46:15.000Z,2.44
2017-12-12T13:48:42.395Z,2.37
2017-12-12T13:51:09.775Z,2.48
2017-12-12T13:53:37.393Z,2.38
2017-12-12T13:56:04.895Z,2.39
2017-12-12T13:58:32.382Z,2.40
2017-12-12T14:00:59.771Z,2.44
2017-12-12T14:03:27.281Z,2.47
2017-12-12T14:05:54.679Z,2.36
2017-12-12T14:08:22.091Z,2.59
2017-12-12T14:10:49.461Z,2.62
2017-12-12T14:13:22.599Z,2.58
2017-12-12T14:15:49.983Z,2.57
2017-12-12T14:18:17.386Z,2.52
2017-12-12T14:20:44.827Z,2.42
2017-12-12T14:23:12.247Z,2.60
2017-12-12T14:25:39.636Z,2.72
2017-12-12T14:28:07.036Z,2.85
2017-12-12T14:30:34.418Z,2.65
2017-12-12T14:33:01.832Z,2.90
2017-12-12T14:35:29.240Z,2.85
2017-12-12T14:37:56.635Z,2.69
2017-12-12T14:40:24.027Z,2.62
2017-12-12T14:42:51.444Z,2.76
2017-12-12T14:45:18.836Z,2.74
2017-12-12T14:47:46.226Z,2.57
2017-12-12T14:50:13.634Z,2.61
2017-12-12T14:52:41.011Z,2.71
2017-12-12T14:55:08.414Z,2.60
2017-12-12T14:57:35.803Z,2.83
2017-12-12T15:00:04.155Z,2.93
2017-12-12T15:02:31.547Z,2.86
2017-12-12T15:04:58.943Z,3.21
2017-12-12T15:07:26.382Z,3.27
2017-12-12T15:09:53.780Z,3.17
2017-12-12T15:12:21.183Z,2.88
2017-12-12T15:14:48.623Z,2.88
2017-12-12T15:17:16.015Z,2.92
2017-12-12T15:19:43.418Z,2.89
2017-12-12T15:22:10.794Z,2.85
2017-12-12T15:24:38.195Z,2.89
2017-12-12T15:27:05.624Z,2.83
2017-12-12T15:29:33.027Z,2.64
2017-12-12T15:32:00.432Z,2.83
2017-12-12T15:34:27.831Z,2.95
2017-12-12T15:36:55.227Z,2.80
2017-12-12T15:39:22.616Z,2.84
2017-12-12T15:41:50.012Z,2.81
2017-12-12T15:44:17.437Z,2.65
2017-12-12T15:46:44.807Z,2.80
2017-12-12T15:49:12.215Z,2.78
2017-12-12T15:51:39.620Z,2.80
2017-12-12T15:54:07.022Z,2.89
2017-12-12T15:56:34.422Z,2.72
2017-12-12T15:59:01.854Z,2.78
2017-12-12T16:01:29.251Z,2.60
2017-12-12T16:03:56.630Z,2.45
2017-12-12T16:06:24.031Z,2.55
2017-12-12T16:08:51.426Z,2.62
2017-12-12T16:11:18.822Z,2.56
2017-12-12T16:13:46.221Z,2.56
2017-12-12T16:16:13.610Z,2.52
2017-12-12T16:18:41.026Z,2.41
2017-12-12T16:21:08.426Z,2.48
2017-12-12T16:23:35.887Z,2.33
2017-12-12T16:26:03.267Z,2.25
2017-12-12T16:28:30.662Z,2.47
2017-12-12T16:30:58.056Z,2.35
2017-12-12T16:33:25.450Z,2.30
2017-12-12T16:35:52.863Z,2.39
2017-12-12T16:38:20.262Z,2.50
2017-12-12T16:40:47.648Z,2.47
2017-12-12T16:43:15.046Z,2.54
2017-12-12T16:45:42.439Z,2.64
2017-12-12T16:48:09.852Z,2.64
2017-12-12T16:50:37.268Z,2.51
2017-12-12T16:53:04.675Z,2.38
2017-12-12T16:55:32.067Z,2.63
2017-12-12T16:57:59.500Z,2.75
2017-12-12T17:00:26.922Z,2.58
2017-12-12T17:02:54.332Z,2.64
2017-12-12T17:05:21.719Z,2.80
2017-12-12T17:07:49.132Z,2.74
2017-12-12T17:10:16.522Z,2.85
2017-12-12T17:12:43.926Z,2.59
2017-12-12T17:15:11.332Z,2.79
2017-12-12T17:17:38.724Z,2.80
2017-12-12T17:20:06.127Z,3.08
2017-12-12T17:22:33.529Z,2.86
2017-12-12T17:25:00.951Z,2.96
2017-12-12T17:27:28.351Z,2.99
2017-12-12T17:29:55.750Z,3.01
2017-12-12T17:32:23.148Z,2.82
2017-12-12T17:34:50.548Z,2.99
2017-12-12T17:37:17.946Z,2.98
2017-12-12T17:39:45.345Z,2.91
2017-12-12T17:42:12.735Z,2.97
2017-12-12T17:44:40.135Z,2.85
2017-12-12T17:47:07.534Z,2.90
2017-12-12T17:49:34.926Z,2.97
2017-12-12T17:52:02.315Z,2.85
2017-12-12T17:54:29.702Z,2.94
2017-12-12T17:56:57.115Z,2.81
2017-12-12T17:59:24.508Z,2.99
2017-12-12T18:01:51.903Z,2.89
2017-12-12T18:04:19.290Z,2.98
2017-12-12T18:06:46.686Z,2.82
2017-12-12T18:09:14.091Z,2.88
2017-12-12T18:11:41.491Z,2.87
2017-12-12T18:14:08.886Z,2.86
2017-12-12T18:16:36.272Z,2.99
2017-12-12T18:19:03.662Z,3.06
2017-12-12T18:21:31.063Z,3.22
2017-12-12T18:23:58.468Z,3.21
2017-12-12T18:26:25.860Z,3.17
2017-12-12T18:28:53.259Z,3.34
2017-12-12T18:31:20.654Z,3.32
2017-12-12T18:33:48.046Z,3.24
2017-12-12T18:36:15.452Z,3.42
2017-12-12T18:38:42.931Z,3.51
2017-12-12T18:41:10.338Z,3.49
2017-12-12T18:43:37.731Z,3.42
2017-12-12T18:46:05.123Z,3.62
2017-12-12T18:48:32.528Z,3.42
2017-12-12T18:50:59.927Z,3.48
2017-12-12T18:53:27.407Z,3.48
2017-12-12T18:55:54.807Z,3.58
2017-12-12T18:58:22.211Z,3.33
2017-12-12T19:00:49.610Z,3.48
2017-12-12T19:03:17.085Z,3.66
2017-12-12T19:05:44.464Z,3.55
2017-12-12T19:08:11.867Z,3.43
2017-12-12T19:13:11.235Z,3.19
2017-12-12T19:15:38.635Z,3.43
2017-12-12T19:18:06.031Z,3.20
2017-12-12T19:20:33.424Z,3.29
2017-12-12T19:23:00.830Z,3.23
2017-12-12T19:25:28.223Z,3.36
2017-12-12T19:27:55.640Z,3.32
2017-12-12T19:30:23.035Z,3.44
2017-12-12T19:32:50.459Z,3.47
2017-12-12T19:35:17.855Z,3.25
2017-12-12T19:37:45.238Z,3.27
2017-12-12T19:40:12.643Z,3.19
2017-12-12T19:42:40.042Z,3.16
2017-12-12T19:45:07.451Z,3.28
2017-12-12T19:47:34.852Z,3.23
2017-12-12T19:50:02.255Z,3.14
2017-12-12T19:52:29.651Z,3.13
2017-12-12T19:54:57.067Z,3.14
2017-12-12T19:57:24.459Z,3.10
2017-12-12T19:59:51.866Z,3.05
2017-12-12T20:02:19.262Z,3.12
2017-12-12T20:04:46.670Z,2.92
2017-12-12T20:07:14.076Z,2.89
2017-12-12T20:09:41.492Z,2.81
2017-12-12T20:12:08.898Z,2.83
2017-12-12T20:14:36.295Z,2.76
2017-12-12T20:17:03.694Z,2.72
2017-12-12T20:19:31.098Z,2.87
2017-12-12T20:21:58.487Z,2.83
2017-12-12T20:24:25.911Z,2.77
2017-12-12T20:26:53.305Z,2.78
2017-12-12T20:29:20.697Z,2.75
2017-12-12T20:31:48.121Z,2.89
2017-12-12T20:34:15.507Z,2.87
2017-12-12T20:36:42.921Z,2.90
2017-12-12T20:39:10.316Z,2.98
2017-12-12T20:41:37.715Z,3.03
2017-12-12T20:44:05.117Z,2.96
2017-12-12T20:46:32.518Z,2.91
2017-12-12T20:48:59.920Z,2.98
2017-12-12T20:51:27.318Z,3.18
2017-12-12T20:53:54.719Z,2.96
2017-12-12T20:56:22.150Z,2.89
2017-12-12T20:58:49.551Z,2.93
2017-12-12T21:01:16.953Z,3.04
2017-12-12T21:03:44.343Z,2.93
2017-12-12T21:06:11.746Z,2.87
2017-12-12T21:08:39.226Z,2.75
2017-12-12T21:11:06.730Z,2.87
2017-12-12T21:13:34.122Z,2.81
2017-12-12T21:16:01.522Z,2.83
2017-12-12T21:18:28.915Z,2.82
2017-12-12T21:20:56.334Z,2.83
2017-12-12T21:23:23.726Z,2.95
2017-12-12T21:25:51.147Z,3.07
2017-12-12T21:28:18.546Z,3.00
2017-12-12T21:30:45.953Z,2.94
2017-12-12T21:33:13.364Z,2.92
2017-12-12T21:35:40.763Z,3.03
2017-12-12T21:38:08.176Z,3.18
2017-12-12T21:40:35.568Z,3.35
2017-12-12T21:43:02.984Z,3.16
2017-12-12T21:45:30.383Z,3.21
2017-12-12T21:47:57.783Z,3.18
2017-12-12T21:50:25.177Z,3.18
2017-12-12T21:52:52.574Z,3.17
2017-12-12T21:55:20.079Z,2.88
2017-12-12T21:57:47.486Z,3.01
2017-12-12T22:00:14.992Z,3.14
2017-12-12T22:02:42.407Z,3.14
2017-12-12T22:05:09.787Z,2.92
2017-12-12T22:07:37.190Z,2.85
2017-12-12T22:10:04.579Z,2.98
2017-12-12T22:12:31.983Z,2.90
2017-12-12T22:14:59.372Z,2.79
2017-12-12T22:17:26.775Z,2.77
2017-12-12T22:19:54.166Z,2.96
2017-12-12T22:22:21.592Z,2.96
2017-12-12T22:24:48.982Z,3.06
2017-12-12T22:27:16.379Z,3.09
2017-12-12T22:29:43.802Z,3.15
2017-12-12T22:32:11.192Z,3.14
2017-12-12T22:34:38.623Z,3.06
2017-12-12T22:37:06.015Z,2.88
2017-12-12T22:39:33.423Z,2.88
2017-12-12T22:42:00.827Z,2.84
2017-12-12T22:44:28.226Z,2.77
2017-12-12T22:46:55.622Z,2.69
2017-12-12T22:49:23.031Z,2.85
2017-12-12T22:51:51.327Z,2.71
2017-12-12T22:54:18.719Z,2.67
2017-12-12T22:56:46.120Z,2.73
2017-12-12T22:59:13.675Z,2.81
2017-12-12T23:01:41.076Z,2.68
2017-12-12T23:04:08.475Z,2.67
2017-12-12T23:06:35.883Z,2.62
2017-12-12T23:09:03.286Z,2.73
2017-12-12T23:11:30.685Z,2.75
2017-12-12T23:13:58.090Z,2.55
2017-12-12T23:16:25.483Z,2.51
2017-12-12T23:18:52.891Z,2.36
2017-12-12T23:21:20.279Z,2.40
2017-12-12T23:23:47.684Z,2.47
2017-12-12T23:26:15.118Z,2.53
2017-12-12T23:28:42.523Z,2.60
2017-12-12T23:31:09.922Z,2.70
2017-12-12T23:33:37.311Z,2.46
2017-12-12T23:36:04.771Z,2.34
2017-12-12T23:38:32.250Z,2.43
2017-12-12T23:40:59.655Z,2.38
2017-12-12T23:43:27.066Z,2.53
2017-12-12T23:45:54.463Z,2.47
2017-12-12T23:48:21.882Z,2.46
2017-12-12T23:50:49.284Z,2.45
2017-12-12T23:53:16.731Z,2.46
2017-12-12T23:55:44.130Z,2.48
2017-12-12T23:58:11.531Z,2.57
